Hickman, NE (68372)

3:17 AM CST on December 26, 2014 (GMT -0600)
KNEROCA2 | Change Station
CLOSE
Current Station
Personal Weather Station
Location: Roca, NE
Elevation: 1279 ft
Nearby Weather Stations

Elev 1279 ft 40.64 °N, 96.69 °W | Updated 51 minutes ago

Mostly Cloudy
Mostly Cloudy
31.1 °F
Feels Like 22 °F
N
11.0
Wind Variable Wind from West
Gusts 11.0 mph

Today
High -- | Low -- °F
--% Chance of Precip.
Yesterday
High -- | Low -- °F
Precip. -- in
7:48 AM 5:05 PM
Waxing Crescent, 24% visible
Pressure 29.86 in
Visibility 6.0 miles
Clouds Overcast 600 ft
Windchill 22 °F
Dew Point 30 °F
Humidity 94%
Rainfall 0.00 in
Snow Depth Not available.
UV 0 out of 12
Pollen .10 out of 12
Air Quality Not available.
Flu Activity Not available.
METAR KLNK 260854Z AUTO 36014KT 6SM BR OVC006 01/M01 A2985 RMK AO2 SLP112 T00061006 53029

More Conditions Fewer Conditions

Pressure 29.86 in
Visibility 6.0 miles
Clouds Overcast 600 ft
Windchill 22 °F
Dew Point 30 °F
Humidity 94%
Rainfall 0.00 in
Snow Depth Not available.
UV 0 out of 12
Pollen .10 out of 12
Air Quality Not available.
Flu Activity Not available.
METAR KLNK 260854Z AUTO 36014KT 6SM BR OVC006 01/M01 A2985 RMK AO2 SLP112 T00061006 53029

More Conditions Fewer Conditions

10-Day Weather Forecast

Almanac

Astronomy

Dec. 26, 2014 Rise Set
Actual Time
Civil Twilight
Nautical Twilight
Astronomical Twilight
Moon
Length of Visible Light
Length of Day
Tomorrow will be .
, % of the Moon is Illuminated

Today's Extremes

State Highs State Lows

Community

WunderPhotos

Upload Photos

1,780,568 photos uploaded!

WunderBlogs® & News

Nearby

Air Quality

  Air Quality AQ Index Pollutant
Not available.

Snow Depth

Station Depth Elevation

Earthquake Activity

City Distance Mag. Time & Date
Minimum magnitude displayed is 2.5.

Coastal Water Temperatures

Place Temperature

Nearby Weather Stations